createdAt,value
2018-03-08T00:01:56.145Z,0.70
2018-03-08T00:04:22.645Z,0.70
2018-03-08T00:06:49.459Z,0.80
2018-03-08T00:09:16.005Z,0.60
2018-03-08T00:11:43.138Z,0.60
2018-03-08T00:14:10.027Z,0.60
2018-03-08T00:16:36.949Z,0.60
2018-03-08T00:19:04.362Z,0.60
2018-03-08T00:21:31.645Z,0.60
2018-03-08T00:26:26.349Z,0.50
2018-03-08T00:28:54.038Z,0.60
2018-03-08T00:31:21.343Z,0.70
2018-03-08T00:33:47.832Z,0.70
2018-03-08T00:36:14.383Z,0.80
2018-03-08T00:38:40.920Z,0.70
2018-03-08T00:41:08.960Z,0.60
2018-03-08T00:43:35.987Z,0.70
2018-03-08T00:46:02.540Z,0.60
2018-03-08T00:48:29.026Z,0.70
2018-03-08T00:50:55.590Z,0.70
2018-03-08T00:53:22.890Z,0.70
2018-03-08T00:55:49.457Z,0.70
2018-03-08T00:58:17.167Z,0.60
2018-03-08T01:00:44.111Z,0.60
2018-03-08T01:03:10.979Z,0.70
2018-03-08T01:05:38.277Z,0.70
2018-03-08T01:08:05.190Z,0.70
2018-03-08T01:10:32.017Z,0.60
2018-03-08T01:12:58.963Z,0.70
2018-03-08T01:15:26.372Z,0.70
2018-03-08T01:17:52.920Z,0.50
2018-03-08T01:20:19.794Z,0.20
2018-03-08T01:22:47.437Z,0.60
2018-03-08T01:25:15.225Z,1.10
2018-03-08T01:27:41.758Z,0.60
2018-03-08T01:30:08.631Z,0.50
2018-03-08T01:32:35.452Z,0.60
2018-03-08T01:35:02.014Z,0.60
2018-03-08T01:37:28.705Z,0.50
2018-03-08T01:39:56.219Z,0.60
2018-03-08T01:42:22.987Z,0.60
2018-03-08T01:44:49.993Z,0.60
2018-03-08T01:47:16.699Z,0.50
2018-03-08T01:49:44.538Z,0.60
2018-03-08T01:52:11.463Z,0.60
2018-03-08T01:54:38.155Z,0.50
2018-03-08T01:57:05.750Z,0.60
2018-03-08T01:59:32.310Z,0.60
2018-03-08T02:01:58.903Z,0.70
2018-03-08T02:04:26.265Z,0.70
2018-03-08T02:06:52.780Z,0.60
2018-03-08T02:09:20.830Z,0.60
2018-03-08T02:11:47.445Z,0.70
2018-03-08T02:14:14.022Z,0.70
2018-03-08T02:16:40.593Z,0.60
2018-03-08T02:19:08.185Z,0.60
2018-03-08T02:21:34.725Z,1.00
2018-03-08T02:24:01.150Z,0.50
2018-03-08T02:26:28.467Z,0.60
2018-03-08T02:28:55.346Z,0.70
2018-03-08T02:31:22.613Z,0.60
2018-03-08T02:33:50.573Z,0.60
2018-03-08T02:36:17.413Z,0.80
2018-03-08T02:38:43.948Z,0.70
2018-03-08T02:41:11.856Z,0.60
2018-03-08T02:43:39.109Z,0.50
2018-03-08T02:46:05.634Z,0.50
2018-03-08T02:48:32.229Z,0.60
2018-03-08T02:50:58.855Z,0.50
2018-03-08T02:53:26.090Z,0.60
2018-03-08T02:55:52.892Z,0.50
2018-03-08T02:58:19.776Z,0.50
2018-03-08T03:00:46.347Z,0.60
2018-03-08T03:03:12.916Z,0.50
2018-03-08T03:05:40.285Z,0.60
2018-03-08T03:08:07.645Z,0.60
2018-03-08T03:10:34.382Z,0.60
2018-03-08T03:13:01.641Z,0.50
2018-03-08T03:15:29.682Z,0.50
2018-03-08T03:17:56.785Z,0.40
2018-03-08T03:20:24.798Z,0.50
2018-03-08T03:22:51.731Z,0.50
2018-03-08T03:25:19.384Z,0.50
2018-03-08T03:27:46.666Z,0.50
2018-03-08T03:30:13.161Z,0.10
2018-03-08T03:32:39.716Z,0.60
2018-03-08T03:35:06.312Z,0.50
2018-03-08T03:37:33.132Z,0.50
2018-03-08T03:40:00.881Z,0.60
2018-03-08T03:42:27.409Z,0.50
2018-03-08T03:44:53.952Z,0.40
2018-03-08T03:49:48.969Z,0.40
2018-03-08T03:52:15.504Z,0.50
2018-03-08T03:54:42.117Z,0.50
2018-03-08T03:57:08.582Z,0.50
2018-03-08T03:59:35.454Z,0.50
2018-03-08T04:02:02.946Z,0.60
2018-03-08T04:04:29.889Z,0.20
2018-03-08T04:06:57.110Z,0.50
2018-03-08T04:09:23.672Z,0.60
2018-03-08T04:11:50.187Z,0.50
2018-03-08T04:14:16.836Z,0.60
2018-03-08T04:16:44.680Z,0.50
2018-03-08T04:21:49.688Z,0.70
2018-03-08T04:24:16.126Z,0.70
2018-03-08T04:26:42.976Z,0.60
2018-03-08T04:29:09.513Z,0.70
2018-03-08T04:34:04.285Z,0.60
2018-03-08T04:36:31.411Z,0.50
2018-03-08T04:38:58.386Z,0.50
2018-03-08T04:41:24.921Z,0.50
2018-03-08T04:43:52.884Z,0.50
2018-03-08T04:46:20.552Z,0.50
2018-03-08T04:48:47.021Z,0.40
2018-03-08T04:51:13.834Z,0.50
2018-03-08T04:53:41.845Z,0.50
2018-03-08T04:58:37.179Z,0.50
2018-03-08T05:01:03.767Z,0.50
2018-03-08T05:03:30.662Z,0.70
2018-03-08T05:08:25.477Z,0.60
2018-03-08T05:10:53.125Z,0.40
2018-03-08T05:13:20.387Z,0.60
2018-03-08T05:15:46.956Z,0.50
2018-03-08T05:18:13.643Z,0.50
2018-03-08T05:20:40.222Z,0.50
2018-03-08T05:23:06.700Z,0.40
2018-03-08T05:25:34.219Z,0.50
2018-03-08T05:28:01.389Z,0.60
2018-03-08T05:30:28.456Z,0.70
2018-03-08T05:32:55.756Z,0.70
2018-03-08T05:35:22.967Z,0.60
2018-03-08T05:37:50.804Z,0.10
2018-03-08T05:42:46.355Z,0.60
2018-03-08T05:45:12.968Z,0.50
2018-03-08T05:47:39.520Z,0.60
2018-03-08T05:55:03.330Z,0.80
2018-03-08T05:59:58.243Z,0.70
2018-03-08T06:02:25.388Z,0.80
2018-03-08T06:07:22.705Z,0.70
2018-03-08T06:09:50.957Z,0.60
2018-03-08T06:12:18.830Z,0.90
2018-03-08T06:14:45.507Z,0.80
2018-03-08T06:17:12.762Z,0.70
2018-03-08T06:19:39.731Z,0.70
2018-03-08T06:22:07.000Z,0.80
2018-03-08T06:24:34.640Z,0.60
2018-03-08T06:27:01.641Z,0.90
2018-03-08T06:29:28.685Z,0.80
2018-03-08T06:31:55.643Z,0.70
2018-03-08T06:34:22.397Z,0.70
2018-03-08T06:36:49.237Z,0.80
2018-03-08T06:39:16.119Z,0.80
2018-03-08T06:41:43.689Z,0.80
2018-03-08T06:44:11.222Z,0.80
2018-03-08T06:46:37.805Z,0.90
2018-03-08T06:49:05.492Z,0.90
2018-03-08T06:51:32.029Z,1.00
2018-03-08T06:53:59.773Z,1.10
2018-03-08T06:56:26.998Z,1.20
2018-03-08T06:58:53.838Z,1.80
2018-03-08T07:01:20.786Z,1.20
2018-03-08T07:03:47.293Z,1.10
2018-03-08T07:06:13.982Z,1.30
2018-03-08T07:08:40.449Z,1.20
2018-03-08T07:11:07.416Z,1.30
2018-03-08T07:13:34.391Z,1.30
2018-03-08T07:16:01.671Z,1.50
2018-03-08T07:18:32.331Z,1.50
2018-03-08T07:20:59.774Z,1.40
2018-03-08T07:23:28.185Z,1.70
2018-03-08T07:25:55.549Z,1.60
2018-03-08T07:28:22.468Z,1.70
2018-03-08T07:30:49.301Z,1.70
2018-03-08T07:33:15.782Z,1.60
2018-03-08T07:35:42.625Z,1.70
2018-03-08T07:38:09.109Z,1.80
2018-03-08T07:40:37.458Z,1.80
2018-03-08T07:43:05.423Z,1.80
2018-03-08T07:45:32.600Z,1.80
2018-03-08T07:47:59.900Z,1.80
2018-03-08T07:50:27.421Z,1.80
2018-03-08T07:52:55.599Z,1.90
2018-03-08T07:55:22.892Z,1.90
2018-03-08T07:57:50.024Z,2.00
2018-03-08T08:00:16.499Z,2.10
2018-03-08T08:05:23.330Z,2.10
2018-03-08T08:08:02.086Z,2.20
2018-03-08T08:10:28.773Z,1.90
2018-03-08T08:12:55.422Z,2.00
2018-03-08T08:15:23.112Z,4.60
2018-03-08T08:20:17.899Z,1.90
2018-03-08T08:22:45.703Z,2.00
2018-03-08T08:25:13.393Z,2.00
2018-03-08T08:27:39.893Z,2.10
2018-03-08T08:30:07.225Z,2.20
2018-03-08T08:32:34.360Z,2.20
2018-03-08T08:35:01.781Z,2.40
2018-03-08T08:39:56.728Z,2.30
2018-03-08T08:42:24.661Z,2.50
2018-03-08T08:44:52.110Z,2.40
2018-03-08T08:47:19.419Z,2.50
2018-03-08T08:49:45.991Z,2.40
2018-03-08T08:52:13.570Z,2.60
2018-03-08T08:57:08.257Z,3.00
2018-03-08T08:59:35.928Z,3.10
2018-03-08T09:02:03.583Z,3.10
2018-03-08T09:04:31.699Z,3.20
2018-03-08T09:06:58.905Z,3.10
2018-03-08T09:09:25.427Z,3.30
2018-03-08T09:11:52.987Z,3.10
2018-03-08T09:14:21.134Z,3.10
2018-03-08T09:16:47.638Z,3.10
2018-03-08T09:19:14.145Z,3.00
2018-03-08T09:21:42.123Z,3.00
2018-03-08T09:24:08.673Z,3.10
2018-03-08T09:26:36.002Z,3.00
2018-03-08T09:29:03.295Z,2.80
2018-03-08T09:31:30.956Z,2.60
2018-03-08T09:33:57.867Z,2.50
2018-03-08T09:36:24.407Z,2.40
2018-03-08T09:38:52.848Z,2.40
2018-03-08T09:41:19.409Z,2.50
2018-03-08T09:43:46.460Z,2.00
2018-03-08T09:46:19.724Z,2.30
2018-03-08T09:48:47.263Z,2.30
2018-03-08T09:51:14.056Z,2.40
2018-03-08T09:53:40.663Z,2.50
2018-03-08T09:56:07.276Z,2.50
2018-03-08T09:58:33.832Z,2.50
2018-03-08T10:01:01.219Z,2.70
2018-03-08T10:03:27.782Z,2.80
2018-03-08T10:05:55.145Z,2.70
2018-03-08T10:08:21.743Z,2.60
2018-03-08T10:10:48.722Z,2.70
2018-03-08T10:13:15.262Z,2.80
2018-03-08T10:15:42.081Z,2.70
2018-03-08T10:18:08.970Z,2.70
2018-03-08T10:20:36.393Z,2.60
2018-03-08T10:23:03.909Z,2.70
2018-03-08T10:25:30.576Z,2.60
2018-03-08T10:27:57.145Z,2.60
2018-03-08T10:30:24.449Z,2.60
2018-03-08T10:37:48.417Z,2.80
2018-03-08T10:40:14.900Z,2.70
2018-03-08T10:45:08.703Z,2.80
2018-03-08T10:47:36.306Z,2.50
2018-03-08T10:50:03.246Z,2.90
2018-03-08T10:52:30.852Z,3.00
2018-03-08T10:54:57.925Z,2.90
2018-03-08T10:57:24.445Z,3.10
2018-03-08T10:59:50.852Z,3.20
2018-03-08T11:02:23.876Z,3.20
2018-03-08T11:04:57.967Z,3.30
2018-03-08T11:09:59.112Z,3.50
2018-03-08T11:12:26.495Z,3.70
2018-03-08T11:14:54.599Z,3.60
2018-03-08T11:19:51.152Z,3.50
2018-03-08T11:22:18.090Z,3.50
2018-03-08T11:24:44.718Z,3.60
2018-03-08T11:32:08.067Z,3.30
2018-03-08T11:34:35.512Z,3.30
2018-03-08T11:37:03.499Z,3.20
2018-03-08T11:39:31.484Z,3.10
2018-03-08T11:44:27.144Z,3.20
2018-03-08T11:46:53.672Z,3.20
2018-03-08T11:51:48.668Z,3.10
2018-03-08T11:54:16.266Z,2.70
2018-03-08T11:56:42.495Z,2.70
2018-03-08T11:59:09.368Z,3.00
2018-03-08T12:01:38.300Z,3.10
2018-03-08T12:04:06.094Z,3.10
2018-03-08T12:06:33.058Z,3.10
2018-03-08T12:11:28.562Z,3.00
2018-03-08T12:13:55.053Z,3.40
2018-03-08T12:16:21.503Z,3.60
2018-03-08T12:18:48.026Z,3.70
2018-03-08T12:21:14.844Z,3.80
2018-03-08T12:23:41.881Z,4.00
2018-03-08T12:26:08.750Z,3.90
2018-03-08T12:28:35.587Z,3.90
2018-03-08T12:31:02.101Z,4.50
2018-03-08T12:33:29.356Z,4.10
2018-03-08T12:35:56.788Z,4.10
2018-03-08T12:40:51.561Z,4.20
2018-03-08T12:43:18.108Z,4.20
2018-03-08T12:45:45.716Z,4.10
2018-03-08T12:48:12.520Z,4.30
2018-03-08T12:50:39.541Z,4.50
2018-03-08T12:53:07.225Z,4.70
2018-03-08T13:00:32.341Z,5.10
2018-03-08T13:02:59.358Z,4.90
2018-03-08T13:05:26.689Z,4.70
2018-03-08T13:07:54.879Z,4.70
2018-03-08T13:10:29.188Z,4.90
2018-03-08T13:12:55.615Z,4.90
2018-03-08T13:15:23.650Z,5.10
2018-03-08T13:20:19.700Z,5.10
2018-03-08T13:22:47.206Z,4.70
2018-03-08T13:25:14.070Z,4.90
2018-03-08T13:27:40.533Z,4.50
2018-03-08T13:32:35.421Z,4.80
2018-03-08T13:37:30.719Z,5.30
2018-03-08T13:39:57.825Z,5.50
2018-03-08T13:42:24.358Z,5.60
2018-03-08T13:45:10.164Z,5.50
2018-03-08T13:47:36.945Z,5.30
2018-03-08T13:52:32.187Z,5.40
2018-03-08T13:54:59.609Z,5.30
2018-03-08T13:57:26.262Z,5.20
2018-03-08T13:59:54.010Z,5.10
2018-03-08T14:02:23.141Z,5.20
2018-03-08T14:04:50.014Z,5.20
2018-03-08T14:07:17.117Z,5.30
2018-03-08T14:09:43.930Z,5.30
2018-03-08T14:12:11.245Z,5.40
2018-03-08T14:14:38.665Z,5.30
2018-03-08T14:17:05.309Z,5.40
2018-03-08T14:19:31.862Z,5.70
2018-03-08T14:21:59.471Z,6.20
2018-03-08T14:24:26.032Z,7.00
2018-03-08T14:26:52.485Z,7.90
2018-03-08T14:31:49.114Z,9.10
2018-03-08T14:34:16.335Z,9.10
2018-03-08T14:39:12.709Z,10.90
2018-03-08T14:41:40.258Z,11.50
2018-03-08T14:44:06.905Z,12.40
2018-03-08T14:46:34.083Z,12.70
2018-03-08T14:49:00.734Z,12.00
2018-03-08T14:51:27.839Z,11.70
2018-03-08T14:56:23.092Z,13.40
2018-03-08T15:01:18.770Z,12.20
2018-03-08T15:03:46.340Z,11.50
2018-03-08T15:06:14.017Z,11.50
2018-03-08T15:08:41.468Z,11.50
2018-03-08T15:11:08.163Z,11.30
2018-03-08T15:13:35.835Z,10.80
2018-03-08T15:16:03.884Z,10.90
2018-03-08T15:18:32.201Z,10.50
2018-03-08T15:21:00.552Z,11.00
2018-03-08T15:23:28.494Z,11.50
2018-03-08T15:25:55.374Z,11.40
2018-03-08T15:28:23.502Z,10.90
2018-03-08T15:30:50.203Z,10.80
2018-03-08T15:33:19.634Z,10.50
2018-03-08T15:35:47.238Z,10.90
2018-03-08T15:40:42.217Z,11.00
2018-03-08T15:45:36.749Z,10.70
2018-03-08T15:48:04.290Z,10.90
2018-03-08T15:50:30.641Z,10.30
2018-03-08T15:53:00.812Z,10.50
2018-03-08T15:55:28.016Z,10.20
2018-03-08T16:00:24.664Z,9.40
2018-03-08T16:02:51.930Z,9.20
2018-03-08T16:07:59.529Z,9.30
2018-03-08T16:10:35.895Z,9.40
2018-03-08T16:13:03.218Z,9.40
2018-03-08T16:15:30.122Z,9.20
2018-03-08T16:17:56.858Z,9.00
2018-03-08T16:20:25.291Z,9.10
2018-03-08T16:22:52.545Z,9.20
2018-03-08T16:27:49.495Z,8.30
2018-03-08T16:30:16.009Z,7.80
2018-03-08T16:32:43.147Z,7.20
2018-03-08T16:37:38.994Z,6.30
2018-03-08T16:40:11.360Z,6.00
2018-03-08T16:42:37.900Z,5.70
2018-03-08T16:45:04.333Z,5.60
2018-03-08T16:47:31.562Z,5.30
2018-03-08T16:49:58.261Z,5.20
2018-03-08T16:52:24.718Z,5.00
2018-03-08T16:54:52.285Z,4.80
2018-03-08T16:57:19.858Z,4.70
2018-03-08T16:59:46.631Z,4.60
2018-03-08T17:02:14.182Z,4.50
2018-03-08T17:07:10.369Z,4.20
2018-03-08T17:09:38.298Z,4.20
2018-03-08T17:12:05.697Z,4.10
2018-03-08T17:17:00.767Z,4.00
2018-03-08T17:19:27.616Z,3.80
2018-03-08T17:24:22.629Z,3.80
2018-03-08T17:26:49.843Z,3.70
2018-03-08T17:29:18.191Z,3.80
2018-03-08T17:31:46.152Z,3.70
2018-03-08T17:34:16.842Z,3.80
2018-03-08T17:36:44.591Z,4.00
2018-03-08T17:39:11.562Z,4.10
2018-03-08T17:41:38.922Z,4.20
2018-03-08T17:44:07.458Z,4.30
2018-03-08T17:46:34.202Z,4.30
2018-03-08T17:51:29.365Z,4.40
2018-03-08T17:53:56.622Z,4.50
2018-03-08T17:56:23.463Z,4.50
2018-03-08T17:58:50.970Z,4.50
2018-03-08T18:01:18.376Z,3.40
2018-03-08T18:03:44.847Z,4.50
2018-03-08T18:06:11.390Z,4.50
2018-03-08T18:08:37.833Z,4.40
2018-03-08T18:11:04.615Z,4.50
2018-03-08T18:13:31.828Z,4.50
2018-03-08T18:15:58.999Z,4.50
2018-03-08T18:18:25.496Z,4.60
2018-03-08T18:20:53.047Z,4.50
2018-03-08T18:23:20.464Z,4.40
2018-03-08T18:25:46.916Z,4.30
2018-03-08T18:28:14.094Z,4.30
2018-03-08T18:30:40.532Z,4.20
2018-03-08T18:33:07.487Z,4.20
2018-03-08T18:35:34.996Z,4.10
2018-03-08T18:38:02.297Z,4.10
2018-03-08T18:40:29.591Z,4.10
2018-03-08T18:42:56.293Z,4.10
2018-03-08T18:45:22.630Z,4.10
2018-03-08T18:47:49.114Z,4.10
2018-03-08T18:50:16.362Z,4.10
2018-03-08T18:52:43.584Z,4.00
2018-03-08T18:55:16.826Z,4.10
2018-03-08T19:00:12.123Z,4.10
2018-03-08T19:02:39.684Z,4.30
2018-03-08T19:07:44.133Z,4.30
2018-03-08T19:10:11.008Z,4.50
2018-03-08T19:12:38.373Z,4.60
2018-03-08T19:15:05.520Z,4.60
2018-03-08T19:17:32.700Z,4.60
2018-03-08T19:19:59.175Z,4.60
2018-03-08T19:22:25.640Z,4.70
2018-03-08T19:24:52.189Z,4.80
2018-03-08T19:27:18.706Z,5.00
2018-03-08T19:29:45.260Z,5.00
2018-03-08T19:32:14.490Z,5.10
2018-03-08T19:34:41.913Z,5.10
2018-03-08T19:37:09.553Z,5.20
2018-03-08T19:39:35.992Z,5.30
2018-03-08T19:42:02.432Z,5.30
2018-03-08T19:44:30.167Z,5.30
2018-03-08T19:51:55.121Z,4.90
2018-03-08T19:54:23.322Z,4.70
2018-03-08T19:59:19.337Z,4.50
2018-03-08T20:04:14.086Z,4.50
2018-03-08T20:06:40.644Z,4.30
2018-03-08T20:11:36.668Z,4.20
2018-03-08T20:16:32.414Z,4.20
2018-03-08T20:18:58.735Z,4.10
2018-03-08T20:21:25.820Z,4.20
2018-03-08T20:23:52.579Z,4.20
2018-03-08T20:26:19.126Z,4.10
2018-03-08T20:28:45.665Z,4.30
2018-03-08T20:33:40.297Z,4.30
2018-03-08T20:36:06.795Z,4.20
2018-03-08T20:38:35.210Z,4.20
2018-03-08T20:43:30.750Z,4.20
2018-03-08T20:45:57.126Z,4.30
2018-03-08T20:48:24.519Z,4.20
2018-03-08T20:50:51.068Z,4.30
2018-03-08T20:53:17.458Z,4.40
2018-03-08T20:55:44.304Z,4.20
2018-03-08T20:58:11.657Z,4.30
2018-03-08T21:00:38.575Z,4.30
2018-03-08T21:03:06.099Z,4.30
2018-03-08T21:05:33.054Z,4.30
2018-03-08T21:07:59.489Z,4.40
2018-03-08T21:10:27.646Z,4.40
2018-03-08T21:13:00.302Z,4.30
2018-03-08T21:15:26.752Z,4.30
2018-03-08T21:17:54.731Z,4.30
2018-03-08T21:20:24.233Z,4.30
2018-03-08T21:22:51.024Z,4.20
2018-03-08T21:25:18.908Z,4.30
2018-03-08T21:27:45.706Z,4.40
2018-03-08T21:30:13.207Z,4.50
2018-03-08T21:35:08.510Z,4.50
2018-03-08T21:37:35.015Z,4.50
2018-03-08T21:40:01.569Z,4.40
2018-03-08T21:42:29.610Z,4.50
2018-03-08T21:44:56.556Z,4.40
2018-03-08T21:47:23.877Z,4.40
2018-03-08T21:49:50.445Z,4.40
2018-03-08T21:52:17.690Z,4.30
2018-03-08T21:54:45.350Z,4.40
2018-03-08T21:57:12.657Z,4.40
2018-03-08T21:59:39.163Z,4.20
2018-03-08T22:02:06.332Z,4.20
2018-03-08T22:04:32.939Z,3.80
2018-03-08T22:07:01.442Z,4.00
2018-03-08T22:09:28.874Z,4.00
2018-03-08T22:11:55.419Z,3.90
2018-03-08T22:14:21.830Z,3.90
2018-03-08T22:16:48.340Z,3.80
2018-03-08T22:19:14.852Z,3.80
2018-03-08T22:21:41.892Z,3.60
2018-03-08T22:26:36.258Z,3.60
2018-03-08T22:29:02.805Z,3.60
2018-03-08T22:31:29.872Z,3.50
2018-03-08T22:33:56.587Z,3.40
2018-03-08T22:36:23.060Z,3.50
2018-03-08T22:38:49.558Z,3.40
2018-03-08T22:41:16.005Z,3.40
2018-03-08T22:43:42.492Z,3.40
2018-03-08T22:46:08.953Z,3.40
2018-03-08T22:48:36.327Z,3.40
2018-03-08T22:51:03.870Z,3.30
2018-03-08T22:53:30.990Z,3.30
2018-03-08T22:55:57.398Z,3.30
2018-03-08T22:58:23.812Z,3.30
2018-03-08T23:00:50.275Z,3.30
2018-03-08T23:03:22.586Z,3.40
2018-03-08T23:05:48.968Z,3.30
2018-03-08T23:08:15.436Z,3.70
2018-03-08T23:10:41.938Z,3.40
2018-03-08T23:13:08.314Z,3.50
2018-03-08T23:15:35.491Z,3.50
2018-03-08T23:18:01.918Z,3.40
2018-03-08T23:20:28.675Z,3.50
2018-03-08T23:22:55.121Z,3.20
2018-03-08T23:25:21.436Z,3.40
2018-03-08T23:27:48.522Z,3.40
2018-03-08T23:30:14.905Z,3.30
2018-03-08T23:32:41.338Z,3.30
2018-03-08T23:37:35.770Z,3.20
2018-03-08T23:42:31.052Z,3.10
2018-03-08T23:44:57.792Z,2.90
2018-03-08T23:47:24.229Z,2.80
2018-03-08T23:49:51.372Z,2.90
2018-03-08T23:52:18.085Z,3.00
2018-03-08T23:54:44.837Z,3.10
2018-03-08T23:57:11.591Z,2.90
2018-03-08T23:59:39.045Z,2.90
